createdAt,value
2022-12-31T00:00:25.775Z,12.96
2022-12-31T00:01:25.879Z,12.95
2022-12-31T00:02:25.873Z,12.95
2022-12-31T00:03:25.780Z,12.93
2022-12-31T00:04:25.690Z,12.96
2022-12-31T00:05:25.676Z,12.98
2022-12-31T00:06:25.859Z,12.99
2022-12-31T00:07:25.699Z,12.99
2022-12-31T00:08:25.657Z,13.01
2022-12-31T00:09:25.658Z,13.01
2022-12-31T00:10:25.641Z,13.01
2022-12-31T00:11:25.629Z,13.04
2022-12-31T00:12:25.654Z,13.06
2022-12-31T00:13:25.634Z,13.06
2022-12-31T00:14:25.616Z,13.06
2022-12-31T00:15:25.568Z,13.09
2022-12-31T00:16:25.607Z,13.14
2022-12-31T00:17:25.590Z,13.14
2022-12-31T00:18:25.607Z,13.16
2022-12-31T00:19:25.526Z,13.20
2022-12-31T00:20:25.626Z,13.20
2022-12-31T00:21:25.518Z,13.23
2022-12-31T00:22:25.504Z,13.21
2022-12-31T00:23:25.598Z,13.26
2022-12-31T00:24:25.562Z,13.26
2022-12-31T00:25:25.510Z,13.24
2022-12-31T00:26:25.448Z,13.24
2022-12-31T00:27:25.477Z,13.27
2022-12-31T00:28:25.466Z,13.27
2022-12-31T00:29:25.428Z,13.30
2022-12-31T00:30:25.461Z,13.38
2022-12-31T00:31:25.425Z,13.36
2022-12-31T00:32:25.389Z,13.40
2022-12-31T00:33:25.420Z,13.40
2022-12-31T00:34:25.387Z,13.40
2022-12-31T00:35:25.389Z,13.39
2022-12-31T00:36:25.403Z,13.38
2022-12-31T00:37:25.377Z,13.38
2022-12-31T00:38:25.319Z,13.36
2022-12-31T00:39:25.319Z,13.35
2022-12-31T00:40:25.329Z,13.30
2022-12-31T00:41:25.333Z,13.29
2022-12-31T00:42:25.291Z,13.29
2022-12-31T00:43:25.301Z,13.26
2022-12-31T00:44:25.330Z,13.29
2022-12-31T00:45:25.257Z,13.27
2022-12-31T00:46:25.344Z,13.23
2022-12-31T00:47:25.258Z,13.21
2022-12-31T00:48:25.266Z,13.20
2022-12-31T00:49:25.278Z,13.20
2022-12-31T00:50:25.200Z,13.19
2022-12-31T00:51:25.201Z,13.16
2022-12-31T00:52:25.218Z,13.16
2022-12-31T00:53:25.168Z,13.14
2022-12-31T00:54:25.160Z,13.14
2022-12-31T00:55:25.148Z,13.16
2022-12-31T00:56:25.131Z,13.13
2022-12-31T00:57:25.187Z,13.11
2022-12-31T00:58:25.179Z,13.09
2022-12-31T00:59:25.095Z,13.06
2022-12-31T01:00:25.085Z,13.05
2022-12-31T01:01:25.203Z,13.04
2022-12-31T01:02:25.245Z,13.04
2022-12-31T01:03:25.114Z,13.04
2022-12-31T01:04:25.039Z,13.04
2022-12-31T01:05:25.028Z,13.02
2022-12-31T01:06:25.018Z,13.02
2022-12-31T01:07:25.048Z,13.01
2022-12-31T01:08:24.989Z,13.01
2022-12-31T01:09:24.997Z,13.01
2022-12-31T01:10:24.980Z,12.99
2022-12-31T01:11:25.007Z,12.98
2022-12-31T01:12:24.954Z,12.96
2022-12-31T01:13:24.968Z,12.95
2022-12-31T01:14:24.956Z,12.95
2022-12-31T01:15:24.981Z,12.93
2022-12-31T01:16:24.910Z,12.91
2022-12-31T01:17:24.904Z,12.90
2022-12-31T01:18:24.876Z,12.90
2022-12-31T01:19:24.913Z,12.88
2022-12-31T01:20:24.905Z,12.87
2022-12-31T01:21:24.869Z,12.86
2022-12-31T01:22:24.854Z,12.86
2022-12-31T01:23:24.857Z,12.84
2022-12-31T01:24:24.866Z,12.84
2022-12-31T01:25:24.867Z,12.83
2022-12-31T01:26:24.801Z,12.81
2022-12-31T01:27:24.796Z,12.80
2022-12-31T01:28:24.778Z,12.80
2022-12-31T01:29:24.780Z,12.80
2022-12-31T01:30:24.765Z,12.80
2022-12-31T01:31:24.815Z,12.79
2022-12-31T01:32:24.757Z,12.79
2022-12-31T01:33:24.755Z,12.79
2022-12-31T01:34:24.707Z,12.80
2022-12-31T01:35:24.708Z,12.80
2022-12-31T01:36:26.179Z,12.81
2022-12-31T01:37:24.691Z,12.81
2022-12-31T01:38:24.667Z,12.81
2022-12-31T01:39:24.666Z,12.81
2022-12-31T01:40:24.658Z,12.80
2022-12-31T01:41:24.650Z,12.80
2022-12-31T01:42:24.651Z,12.81
2022-12-31T01:43:24.618Z,12.80
2022-12-31T01:44:24.609Z,12.83
2022-12-31T01:45:24.606Z,12.81
2022-12-31T01:46:24.632Z,12.81
2022-12-31T01:47:24.566Z,12.84
2022-12-31T01:48:24.687Z,12.84
2022-12-31T01:49:24.555Z,12.84
2022-12-31T01:50:24.537Z,12.84
2022-12-31T01:51:24.559Z,12.87
2022-12-31T01:52:24.565Z,12.88
2022-12-31T01:53:24.520Z,12.87
2022-12-31T01:54:24.545Z,12.87
2022-12-31T01:55:24.550Z,12.87
2022-12-31T01:56:24.496Z,12.88
2022-12-31T01:57:24.468Z,12.88
2022-12-31T01:58:24.556Z,12.90
2022-12-31T01:59:24.455Z,12.90
2022-12-31T02:00:24.431Z,12.90
2022-12-31T02:01:24.620Z,12.91
2022-12-31T02:02:24.546Z,12.95
2022-12-31T02:03:24.456Z,12.95
2022-12-31T02:04:24.406Z,12.95
2022-12-31T02:05:24.379Z,12.98
2022-12-31T02:06:24.367Z,12.99
2022-12-31T02:07:24.364Z,13.02
2022-12-31T02:08:24.422Z,13.04
2022-12-31T02:09:24.395Z,13.04
2022-12-31T02:10:24.390Z,13.04
2022-12-31T02:11:24.329Z,13.06
2022-12-31T02:12:24.298Z,13.06
2022-12-31T02:13:24.324Z,13.05
2022-12-31T02:14:24.302Z,13.08
2022-12-31T02:15:24.316Z,13.11
2022-12-31T02:16:24.311Z,13.13
2022-12-31T02:17:24.255Z,13.14
2022-12-31T02:18:24.262Z,13.14
2022-12-31T02:19:24.231Z,13.16
2022-12-31T02:20:24.211Z,13.16
2022-12-31T02:21:24.205Z,13.17
2022-12-31T02:22:24.194Z,13.19
2022-12-31T02:23:24.192Z,13.21
2022-12-31T02:24:24.223Z,13.29
2022-12-31T02:25:24.174Z,13.32
2022-12-31T02:26:24.243Z,13.30
2022-12-31T02:27:24.151Z,13.32
2022-12-31T02:28:24.132Z,13.35
2022-12-31T02:29:24.116Z,13.35
2022-12-31T02:30:24.132Z,13.38
2022-12-31T02:31:24.213Z,13.39
2022-12-31T02:32:24.165Z,13.43
2022-12-31T02:33:24.086Z,13.43
2022-12-31T02:34:24.055Z,13.46
2022-12-31T02:35:24.116Z,13.47
2022-12-31T02:36:24.050Z,13.55
2022-12-31T02:37:24.185Z,13.68
2022-12-31T02:38:24.027Z,13.76
2022-12-31T02:39:24.007Z,13.78
2022-12-31T02:40:24.034Z,13.80
2022-12-31T02:41:24.034Z,13.83
2022-12-31T02:42:24.010Z,13.80
2022-12-31T02:43:23.971Z,13.83
2022-12-31T02:44:23.957Z,13.85
2022-12-31T02:45:23.948Z,13.86
2022-12-31T02:46:23.991Z,13.93
2022-12-31T02:47:23.926Z,13.94
2022-12-31T02:48:23.945Z,13.96
2022-12-31T02:49:23.917Z,13.97
2022-12-31T02:50:23.925Z,14.00
2022-12-31T02:51:23.926Z,14.00
2022-12-31T02:52:23.864Z,14.01
2022-12-31T02:53:23.897Z,14.09
2022-12-31T02:54:23.845Z,14.09
2022-12-31T02:55:23.836Z,14.12
2022-12-31T02:56:23.826Z,14.12
2022-12-31T02:57:23.856Z,14.13
2022-12-31T02:58:23.794Z,14.22
2022-12-31T02:59:23.812Z,14.27
2022-12-31T03:00:23.849Z,14.31
2022-12-31T03:01:23.985Z,14.33
2022-12-31T03:02:23.927Z,14.37
2022-12-31T03:03:23.745Z,14.38
2022-12-31T03:04:23.740Z,14.40
2022-12-31T03:05:23.730Z,14.40
2022-12-31T03:06:23.728Z,14.44
2022-12-31T03:07:23.746Z,14.46
2022-12-31T03:08:23.684Z,14.52
2022-12-31T03:09:23.683Z,14.53
2022-12-31T03:10:23.676Z,14.58
2022-12-31T03:11:23.679Z,14.59
2022-12-31T03:12:23.734Z,14.64
2022-12-31T03:13:23.635Z,14.64
2022-12-31T03:14:23.635Z,14.82
2022-12-31T03:15:23.678Z,14.95
2022-12-31T03:16:23.671Z,15.12
2022-12-31T03:17:23.595Z,15.12
2022-12-31T03:18:23.580Z,15.15
2022-12-31T03:19:23.565Z,15.15
2022-12-31T03:20:23.552Z,15.19
2022-12-31T03:21:23.575Z,15.26
2022-12-31T03:22:23.535Z,15.38
2022-12-31T03:23:23.533Z,15.35
2022-12-31T03:24:23.516Z,15.33
2022-12-31T03:25:23.539Z,15.27
2022-12-31T03:26:23.508Z,15.27
2022-12-31T03:27:23.486Z,15.27
2022-12-31T03:28:23.464Z,15.22
2022-12-31T03:29:23.467Z,15.22
2022-12-31T03:30:23.452Z,15.23
2022-12-31T03:31:26.101Z,15.19
2022-12-31T03:32:23.415Z,15.15
2022-12-31T03:33:23.427Z,15.12
2022-12-31T03:34:23.403Z,15.14
2022-12-31T03:35:23.407Z,15.08
2022-12-31T03:36:23.415Z,15.05
2022-12-31T03:37:23.381Z,15.03
2022-12-31T03:38:23.356Z,14.97
2022-12-31T03:39:23.407Z,14.95
2022-12-31T03:40:23.335Z,14.93
2022-12-31T03:41:23.325Z,14.92
2022-12-31T03:42:23.341Z,14.92
2022-12-31T03:43:23.315Z,14.90
2022-12-31T03:44:23.295Z,14.86
2022-12-31T03:45:23.296Z,14.83
2022-12-31T03:46:23.333Z,14.83
2022-12-31T03:47:23.313Z,14.85
2022-12-31T03:48:23.269Z,14.79
2022-12-31T03:49:23.265Z,14.79
2022-12-31T03:50:23.260Z,14.82
2022-12-31T03:51:23.217Z,14.83
2022-12-31T03:52:23.237Z,14.86
2022-12-31T03:53:23.254Z,14.85
2022-12-31T03:54:23.185Z,14.85
2022-12-31T03:55:23.220Z,14.86
2022-12-31T03:56:24.246Z,14.90
2022-12-31T03:57:23.194Z,14.90
2022-12-31T03:58:23.162Z,14.89
2022-12-31T03:59:23.134Z,14.92
2022-12-31T04:00:23.130Z,14.95
2022-12-31T04:01:23.345Z,14.96
2022-12-31T04:02:28.601Z,14.99
2022-12-31T04:03:24.271Z,15.04
2022-12-31T04:04:23.108Z,15.05
2022-12-31T04:05:23.076Z,15.04
2022-12-31T04:06:23.057Z,14.99
2022-12-31T04:07:23.100Z,14.95
2022-12-31T04:08:23.035Z,14.87
2022-12-31T04:09:23.056Z,14.83
2022-12-31T04:10:23.104Z,14.77
2022-12-31T04:11:23.055Z,14.70
2022-12-31T04:12:22.994Z,14.63
2022-12-31T04:13:23.009Z,14.58
2022-12-31T04:14:22.965Z,14.53
2022-12-31T04:15:22.975Z,14.51
2022-12-31T04:16:23.025Z,14.48
2022-12-31T04:17:22.940Z,14.41
2022-12-31T04:18:22.988Z,14.44
2022-12-31T04:19:22.966Z,14.40
2022-12-31T04:20:22.903Z,14.37
2022-12-31T04:21:22.893Z,14.36
2022-12-31T04:22:22.906Z,14.34
2022-12-31T04:23:22.893Z,14.33
2022-12-31T04:24:22.868Z,14.31
2022-12-31T04:25:22.850Z,14.30
2022-12-31T04:26:22.834Z,14.30
2022-12-31T04:27:22.825Z,14.28
2022-12-31T04:28:23.028Z,14.27
2022-12-31T04:29:22.806Z,14.28
2022-12-31T04:30:22.797Z,14.28
2022-12-31T04:31:22.800Z,14.27
2022-12-31T04:32:22.776Z,14.27
2022-12-31T04:33:22.796Z,14.30
2022-12-31T04:34:22.745Z,14.30
2022-12-31T04:35:22.746Z,14.28
2022-12-31T04:36:22.774Z,14.31
2022-12-31T04:37:22.748Z,14.31
2022-12-31T04:38:22.709Z,14.31
2022-12-31T04:39:22.767Z,14.31
2022-12-31T04:40:22.806Z,14.31
2022-12-31T04:41:22.702Z,14.34
2022-12-31T04:42:22.700Z,14.40
2022-12-31T04:43:22.656Z,14.41
2022-12-31T04:44:31.331Z,14.46
2022-12-31T04:45:22.639Z,14.48
2022-12-31T04:46:22.680Z,14.49
2022-12-31T04:47:23.939Z,14.51
2022-12-31T04:48:22.607Z,14.52
2022-12-31T04:49:22.981Z,14.53
2022-12-31T04:50:22.589Z,14.56
2022-12-31T04:51:22.580Z,14.63
2022-12-31T04:52:22.599Z,14.71
2022-12-31T04:53:22.537Z,14.82
2022-12-31T04:54:22.550Z,14.92
2022-12-31T04:55:22.602Z,14.97
2022-12-31T04:56:22.547Z,14.99
2022-12-31T04:57:22.497Z,14.96
2022-12-31T04:58:22.508Z,14.96
2022-12-31T04:59:22.468Z,14.96
2022-12-31T05:00:22.462Z,14.96
2022-12-31T05:01:22.618Z,14.95
2022-12-31T05:02:22.685Z,14.93
2022-12-31T05:03:22.501Z,14.95
2022-12-31T05:04:22.427Z,14.99
2022-12-31T05:05:22.421Z,15.01
2022-12-31T05:06:22.416Z,15.01
2022-12-31T05:07:22.437Z,15.07
2022-12-31T05:08:22.386Z,15.08
2022-12-31T05:09:22.406Z,15.10
2022-12-31T05:10:22.357Z,15.11
2022-12-31T05:11:22.367Z,15.14
2022-12-31T05:12:22.352Z,15.11
2022-12-31T05:13:23.966Z,15.15
2022-12-31T05:14:22.369Z,15.19
2022-12-31T05:15:22.325Z,15.22
2022-12-31T05:16:22.372Z,15.23
2022-12-31T05:17:22.276Z,15.26
2022-12-31T05:18:22.276Z,15.35
2022-12-31T05:19:22.257Z,15.36
2022-12-31T05:20:22.308Z,15.38
2022-12-31T05:21:22.266Z,15.41
2022-12-31T05:22:22.230Z,15.40
2022-12-31T05:23:22.214Z,15.45
2022-12-31T05:24:22.207Z,15.45
2022-12-31T05:25:22.194Z,15.43
2022-12-31T05:26:22.195Z,15.40
2022-12-31T05:27:22.221Z,15.38
2022-12-31T05:28:22.219Z,15.40
2022-12-31T05:29:22.152Z,15.43
2022-12-31T05:30:22.144Z,15.50
2022-12-31T05:31:22.150Z,15.58
2022-12-31T05:32:22.130Z,15.56
2022-12-31T05:33:22.190Z,15.63
2022-12-31T05:34:22.100Z,15.62
2022-12-31T05:35:22.078Z,15.62
2022-12-31T05:36:22.078Z,15.62
2022-12-31T05:37:22.056Z,15.77
2022-12-31T05:38:22.057Z,15.87
2022-12-31T05:39:22.139Z,15.87
2022-12-31T05:40:22.029Z,15.87
2022-12-31T05:41:22.139Z,15.93
2022-12-31T05:42:22.018Z,16.00
2022-12-31T05:43:21.988Z,16.05
2022-12-31T05:44:22.005Z,16.08
2022-12-31T05:45:28.391Z,16.06
2022-12-31T05:46:23.151Z,16.02
2022-12-31T05:47:21.970Z,16.05
2022-12-31T05:48:21.949Z,16.05
2022-12-31T05:49:21.941Z,16.03
2022-12-31T05:50:21.927Z,16.06
2022-12-31T05:51:21.927Z,16.05
2022-12-31T05:52:21.907Z,16.03
2022-12-31T05:53:21.904Z,16.06
2022-12-31T05:54:21.901Z,16.06
2022-12-31T05:55:21.868Z,16.05
2022-12-31T05:56:21.886Z,16.09
2022-12-31T05:57:21.855Z,16.09
2022-12-31T05:58:21.851Z,16.06
2022-12-31T05:59:21.870Z,16.05
2022-12-31T06:00:21.839Z,16.08
2022-12-31T06:01:21.820Z,16.18
2022-12-31T06:02:21.805Z,16.18
2022-12-31T06:03:21.974Z,16.16
2022-12-31T06:04:21.786Z,16.14
2022-12-31T06:05:26.318Z,16.16
2022-12-31T06:06:21.762Z,16.17
2022-12-31T06:07:21.737Z,16.28
2022-12-31T06:08:21.752Z,16.29
2022-12-31T06:09:21.718Z,16.29
2022-12-31T06:10:21.698Z,16.26
2022-12-31T06:11:21.773Z,16.25
2022-12-31T06:12:21.698Z,16.32
2022-12-31T06:13:21.707Z,16.40
2022-12-31T06:14:21.667Z,16.46
2022-12-31T06:15:21.661Z,16.43
2022-12-31T06:16:21.709Z,16.42
2022-12-31T06:17:21.644Z,16.42
2022-12-31T06:18:21.621Z,16.37
2022-12-31T06:19:21.637Z,16.32
2022-12-31T06:20:21.605Z,16.26
2022-12-31T06:21:21.604Z,16.25
2022-12-31T06:22:21.591Z,16.28
2022-12-31T06:23:21.613Z,16.32
2022-12-31T06:24:21.636Z,16.29
2022-12-31T06:25:21.539Z,16.26
2022-12-31T06:26:21.539Z,16.24
2022-12-31T06:27:21.534Z,16.29
2022-12-31T06:28:21.539Z,16.42
2022-12-31T06:29:21.505Z,16.39
2022-12-31T06:30:21.490Z,16.43
2022-12-31T06:31:21.568Z,16.43
2022-12-31T06:32:21.498Z,16.49
2022-12-31T06:33:21.497Z,16.47
2022-12-31T06:34:21.448Z,16.46
2022-12-31T06:35:21.437Z,16.46
2022-12-31T06:36:21.420Z,16.46
2022-12-31T06:37:21.407Z,16.46
2022-12-31T06:38:21.410Z,16.49
2022-12-31T06:39:22.857Z,16.54
2022-12-31T06:40:21.415Z,16.55
2022-12-31T06:41:21.447Z,16.58
2022-12-31T06:42:21.423Z,16.58
2022-12-31T06:43:21.367Z,16.59
2022-12-31T06:44:21.337Z,16.57
2022-12-31T06:45:21.320Z,16.55
2022-12-31T06:46:21.346Z,16.54
2022-12-31T06:47:21.347Z,16.51
2022-12-31T06:48:21.307Z,16.49
2022-12-31T06:49:21.288Z,16.57
2022-12-31T06:50:21.326Z,16.58
2022-12-31T06:51:21.259Z,16.55
2022-12-31T06:52:21.235Z,16.52
2022-12-31T06:53:21.238Z,16.49
2022-12-31T06:54:21.244Z,16.44
2022-12-31T06:55:21.227Z,16.46
2022-12-31T06:56:21.319Z,16.47
2022-12-31T06:57:21.699Z,16.49
2022-12-31T06:58:21.309Z,16.49
2022-12-31T06:59:21.169Z,16.49
2022-12-31T07:00:21.173Z,16.52
2022-12-31T07:01:21.234Z,16.54
2022-12-31T07:02:21.229Z,16.57
2022-12-31T07:03:21.180Z,16.61
2022-12-31T07:04:21.165Z,16.59
2022-12-31T07:05:21.135Z,16.59
2022-12-31T07:06:21.124Z,16.62
2022-12-31T07:07:21.085Z,16.58
2022-12-31T07:08:21.101Z,16.58
2022-12-31T07:09:21.054Z,16.57
2022-12-31T07:10:29.984Z,16.55
2022-12-31T07:11:21.067Z,16.52
2022-12-31T07:12:21.031Z,16.55
2022-12-31T07:13:21.027Z,16.58
2022-12-31T07:14:21.061Z,16.59
2022-12-31T07:15:21.000Z,16.59
2022-12-31T07:16:21.019Z,16.61
2022-12-31T07:17:21.573Z,16.64
2022-12-31T07:18:20.967Z,16.65
2022-12-31T07:19:20.954Z,16.65
2022-12-31T07:20:20.951Z,16.65
2022-12-31T07:21:20.929Z,16.64
2022-12-31T07:22:20.919Z,16.70
2022-12-31T07:23:20.929Z,16.69
2022-12-31T07:24:20.904Z,16.70
2022-12-31T07:25:22.218Z,16.70
2022-12-31T07:26:20.887Z,16.65
2022-12-31T07:27:20.864Z,16.73
2022-12-31T07:28:20.865Z,16.76
2022-12-31T07:29:20.861Z,16.76
2022-12-31T07:30:20.907Z,16.74
2022-12-31T07:31:20.888Z,16.70
2022-12-31T07:32:20.821Z,16.65
2022-12-31T07:33:20.799Z,16.64
2022-12-31T07:34:20.809Z,16.64
2022-12-31T07:35:20.791Z,16.64
2022-12-31T07:36:20.797Z,16.62
2022-12-31T07:37:20.959Z,16.61
2022-12-31T07:38:20.738Z,16.61
2022-12-31T07:39:20.748Z,16.59
2022-12-31T07:40:20.733Z,16.58
2022-12-31T07:41:20.724Z,16.54
2022-12-31T07:42:20.728Z,16.54
2022-12-31T07:43:22.414Z,16.55
2022-12-31T07:44:20.683Z,16.59
2022-12-31T07:45:20.717Z,16.62
2022-12-31T07:46:22.471Z,16.64
2022-12-31T07:47:20.647Z,16.67
2022-12-31T07:48:20.640Z,16.64
2022-12-31T07:49:20.633Z,16.65
2022-12-31T07:50:20.617Z,16.65
2022-12-31T07:51:20.612Z,16.65
2022-12-31T07:52:20.650Z,16.62
2022-12-31T07:53:20.579Z,16.62
2022-12-31T07:54:20.605Z,16.61
2022-12-31T07:55:20.623Z,16.58
2022-12-31T07:56:20.557Z,16.58
2022-12-31T07:57:20.570Z,16.57
2022-12-31T07:58:20.570Z,16.59
2022-12-31T07:59:24.183Z,16.67
2022-12-31T08:00:20.510Z,16.69
2022-12-31T08:01:20.598Z,16.65
2022-12-31T08:02:20.607Z,16.64
2022-12-31T08:03:20.527Z,16.64
2022-12-31T08:04:20.473Z,16.61
2022-12-31T08:05:20.462Z,16.59
2022-12-31T08:06:20.440Z,16.65
2022-12-31T08:07:20.433Z,16.69
2022-12-31T08:08:20.421Z,16.69
2022-12-31T08:09:20.439Z,16.72
2022-12-31T08:10:20.412Z,16.70
2022-12-31T08:11:20.388Z,16.69
2022-12-31T08:12:20.401Z,16.70
2022-12-31T08:13:20.425Z,16.69
2022-12-31T08:14:20.380Z,16.62
2022-12-31T08:15:24.102Z,16.62
2022-12-31T08:16:21.405Z,16.61
2022-12-31T08:17:20.319Z,16.62
2022-12-31T08:18:20.320Z,16.62
2022-12-31T08:19:20.292Z,16.62
2022-12-31T08:20:20.387Z,16.64
2022-12-31T08:21:20.285Z,16.62
2022-12-31T08:22:20.270Z,16.67
2022-12-31T08:23:20.264Z,16.64
2022-12-31T08:24:20.253Z,16.62
2022-12-31T08:25:20.296Z,16.64
2022-12-31T08:26:20.290Z,16.70
2022-12-31T08:27:20.218Z,16.70
2022-12-31T08:28:20.208Z,16.76
2022-12-31T08:29:20.192Z,16.76
2022-12-31T08:30:20.240Z,16.77
2022-12-31T08:31:20.230Z,16.77
2022-12-31T08:32:20.161Z,16.76
2022-12-31T08:33:20.212Z,16.72
2022-12-31T08:34:20.140Z,16.69
2022-12-31T08:35:20.125Z,16.65
2022-12-31T08:36:20.163Z,16.72
2022-12-31T08:37:20.101Z,16.74
2022-12-31T08:38:20.098Z,16.79
2022-12-31T08:39:20.098Z,16.79
2022-12-31T08:40:20.071Z,16.79
2022-12-31T08:41:20.050Z,16.77
2022-12-31T08:42:20.104Z,16.77
2022-12-31T08:43:20.048Z,16.79
2022-12-31T08:44:20.067Z,16.80
2022-12-31T08:45:20.041Z,16.82
2022-12-31T08:46:20.009Z,16.82
2022-12-31T08:47:20.031Z,16.80
2022-12-31T08:48:19.997Z,16.83
2022-12-31T08:49:19.990Z,16.87
2022-12-31T08:50:19.971Z,16.90
2022-12-31T08:51:19.953Z,16.88
2022-12-31T08:52:19.951Z,16.90
2022-12-31T08:53:20.076Z,16.91
2022-12-31T08:54:19.925Z,16.92
2022-12-31T08:55:19.916Z,16.91
2022-12-31T08:56:19.907Z,16.92
2022-12-31T08:57:19.893Z,16.90
2022-12-31T08:58:19.924Z,16.90
2022-12-31T08:59:19.870Z,16.87
2022-12-31T09:00:19.863Z,16.88
2022-12-31T09:01:20.002Z,16.91
2022-12-31T09:02:19.861Z,16.90
2022-12-31T09:03:19.842Z,16.90
2022-12-31T09:04:19.843Z,16.94
2022-12-31T09:05:19.821Z,16.95
2022-12-31T09:06:21.530Z,17.01
2022-12-31T09:07:19.777Z,17.04
2022-12-31T09:08:19.801Z,16.99
2022-12-31T09:09:19.752Z,16.99
2022-12-31T09:10:19.752Z,16.97
2022-12-31T09:11:23.123Z,16.99
2022-12-31T09:12:19.744Z,17.04
2022-12-31T09:13:19.711Z,16.99
2022-12-31T09:14:19.735Z,16.98
2022-12-31T09:15:19.705Z,16.97
2022-12-31T09:16:19.752Z,16.97
2022-12-31T09:17:19.662Z,17.01
2022-12-31T09:18:19.667Z,17.02
2022-12-31T09:19:19.648Z,17.01
2022-12-31T09:20:19.680Z,16.98
2022-12-31T09:21:19.688Z,16.94
2022-12-31T09:22:19.610Z,16.95
2022-12-31T09:23:19.600Z,16.98
2022-12-31T09:24:19.607Z,17.07
2022-12-31T09:25:19.583Z,17.09
2022-12-31T09:26:19.701Z,17.13
2022-12-31T09:27:25.613Z,17.16
2022-12-31T09:28:20.550Z,17.22
2022-12-31T09:29:19.532Z,17.22
2022-12-31T09:30:19.520Z,17.19
2022-12-31T09:31:19.570Z,17.16
2022-12-31T09:32:19.533Z,17.12
2022-12-31T09:33:19.492Z,17.07
2022-12-31T09:34:19.517Z,17.06
2022-12-31T09:35:19.472Z,17.06
2022-12-31T09:36:19.462Z,17.04
2022-12-31T09:37:19.511Z,17.02
2022-12-31T09:38:19.541Z,16.98
2022-12-31T09:39:19.423Z,16.98
2022-12-31T09:40:19.415Z,17.01
2022-12-31T09:41:19.465Z,17.01
2022-12-31T09:42:19.389Z,17.02
2022-12-31T09:43:19.384Z,17.04
2022-12-31T09:44:19.373Z,17.04
2022-12-31T09:45:19.392Z,17.10
2022-12-31T09:46:19.425Z,17.12
2022-12-31T09:47:19.423Z,17.09
2022-12-31T09:48:19.340Z,17.04
2022-12-31T09:49:19.322Z,17.02
2022-12-31T09:50:19.314Z,16.99
2022-12-31T09:51:25.023Z,16.99
2022-12-31T09:52:20.312Z,17.04
2022-12-31T09:53:19.284Z,17.04
2022-12-31T09:54:19.272Z,17.02
2022-12-31T09:55:19.261Z,17.09
2022-12-31T09:56:19.249Z,17.14
2022-12-31T09:57:19.261Z,17.14
2022-12-31T09:58:19.252Z,17.12
2022-12-31T09:59:19.210Z,17.10
2022-12-31T10:00:19.203Z,17.09
2022-12-31T10:01:19.337Z,17.06
2022-12-31T10:02:19.405Z,17.02
2022-12-31T10:03:19.645Z,16.95
2022-12-31T10:04:19.175Z,16.91
2022-12-31T10:05:19.143Z,16.84
2022-12-31T10:06:19.141Z,16.84
2022-12-31T10:07:19.125Z,16.84
2022-12-31T10:08:19.133Z,16.87
2022-12-31T10:09:19.222Z,16.87
2022-12-31T10:10:19.150Z,16.84
2022-12-31T10:11:19.083Z,16.84
2022-12-31T10:12:19.101Z,16.90
2022-12-31T10:13:19.054Z,16.92
2022-12-31T10:14:19.046Z,16.95
2022-12-31T10:15:19.062Z,16.99
2022-12-31T10:16:19.061Z,16.98
2022-12-31T10:17:19.013Z,17.01
2022-12-31T10:18:19.096Z,17.06
2022-12-31T10:19:18.992Z,17.07
2022-12-31T10:20:19.036Z,17.06
2022-12-31T10:21:18.976Z,17.06
2022-12-31T10:22:18.982Z,17.07
2022-12-31T10:23:18.983Z,17.12
2022-12-31T10:24:18.975Z,17.12
2022-12-31T10:25:18.965Z,17.12
2022-12-31T10:26:18.913Z,17.13
2022-12-31T10:27:18.971Z,17.12
2022-12-31T10:28:18.891Z,17.16
2022-12-31T10:29:18.896Z,17.13
2022-12-31T10:30:19.008Z,17.13
2022-12-31T10:31:18.905Z,17.09
2022-12-31T10:32:18.887Z,17.10
2022-12-31T10:33:18.844Z,17.09
2022-12-31T10:34:18.870Z,17.09
2022-12-31T10:35:18.875Z,17.10
2022-12-31T10:36:18.803Z,17.10
2022-12-31T10:37:18.797Z,17.09
2022-12-31T10:38:18.809Z,17.07
2022-12-31T10:39:24.057Z,17.06
2022-12-31T10:40:19.755Z,17.07
2022-12-31T10:41:18.758Z,17.07
2022-12-31T10:42:18.825Z,17.09
2022-12-31T10:43:18.745Z,17.09
2022-12-31T10:44:26.242Z,17.07
2022-12-31T10:45:18.708Z,17.10
2022-12-31T10:46:22.892Z,17.16
2022-12-31T10:47:18.690Z,17.17
2022-12-31T10:48:18.778Z,17.16
2022-12-31T10:49:18.659Z,17.19
2022-12-31T10:50:18.655Z,17.22
2022-12-31T10:51:18.649Z,17.25
2022-12-31T10:52:20.466Z,17.24
2022-12-31T10:53:18.621Z,17.24
2022-12-31T10:54:18.608Z,17.27
2022-12-31T10:55:18.624Z,17.25
2022-12-31T10:56:18.594Z,17.24
2022-12-31T10:57:18.628Z,17.24
2022-12-31T10:58:18.561Z,17.22
2022-12-31T10:59:18.560Z,17.22
2022-12-31T11:00:18.537Z,17.20
2022-12-31T11:01:18.666Z,17.25
2022-12-31T11:02:18.712Z,17.25
2022-12-31T11:03:23.430Z,17.28
2022-12-31T11:04:19.538Z,17.32
2022-12-31T11:05:18.489Z,17.28
2022-12-31T11:06:18.579Z,17.27
2022-12-31T11:07:18.473Z,17.25
2022-12-31T11:08:18.471Z,17.28
2022-12-31T11:09:18.466Z,17.30
2022-12-31T11:10:18.490Z,17.37
2022-12-31T11:11:18.427Z,17.41
2022-12-31T11:12:18.450Z,17.41
2022-12-31T11:13:18.472Z,17.45
2022-12-31T11:14:18.421Z,17.41
2022-12-31T11:15:18.390Z,17.46
2022-12-31T11:16:18.397Z,17.47
2022-12-31T11:17:18.350Z,17.47
2022-12-31T11:18:18.349Z,17.45
2022-12-31T11:19:21.611Z,17.43
2022-12-31T11:20:18.365Z,17.43
2022-12-31T11:21:21.618Z,17.43
2022-12-31T11:22:19.305Z,17.46
2022-12-31T11:23:18.309Z,17.45
2022-12-31T11:24:18.283Z,17.45
2022-12-31T11:25:18.284Z,17.43
2022-12-31T11:26:18.285Z,17.45
2022-12-31T11:27:18.289Z,17.46
2022-12-31T11:28:18.268Z,17.50
2022-12-31T11:29:18.232Z,17.53
2022-12-31T11:30:18.214Z,17.50
2022-12-31T11:31:18.253Z,17.52
2022-12-31T11:32:18.234Z,17.53
2022-12-31T11:33:18.201Z,17.53
2022-12-31T11:34:18.572Z,17.56
2022-12-31T11:35:18.182Z,17.56
2022-12-31T11:36:18.151Z,17.57
2022-12-31T11:37:18.165Z,17.56
2022-12-31T11:38:18.139Z,17.52
2022-12-31T11:39:18.121Z,17.49
2022-12-31T11:40:18.144Z,17.50
2022-12-31T11:41:18.103Z,17.46
2022-12-31T11:42:18.088Z,17.45
2022-12-31T11:43:18.169Z,17.46
2022-12-31T11:44:18.073Z,17.46
2022-12-31T11:45:18.070Z,17.46
2022-12-31T11:46:18.082Z,17.47
2022-12-31T11:47:18.070Z,17.46
2022-12-31T11:48:30.253Z,17.46
2022-12-31T11:49:19.010Z,17.45
2022-12-31T11:50:18.002Z,17.46
2022-12-31T11:51:17.992Z,17.46
2022-12-31T11:52:21.448Z,17.46
2022-12-31T11:53:17.980Z,17.45
2022-12-31T11:54:17.957Z,17.47
2022-12-31T11:55:17.953Z,17.46
2022-12-31T11:56:17.932Z,17.43
2022-12-31T11:57:18.033Z,17.41
2022-12-31T11:58:18.034Z,17.41
2022-12-31T11:59:19.890Z,17.41
2022-12-31T12:00:17.913Z,17.39
2022-12-31T12:01:17.955Z,17.38
2022-12-31T12:02:17.964Z,17.37
2022-12-31T12:03:17.874Z,17.35
2022-12-31T12:04:18.058Z,17.35
2022-12-31T12:05:17.851Z,17.38
2022-12-31T12:06:18.009Z,17.35
2022-12-31T12:07:17.831Z,17.34
2022-12-31T12:08:17.874Z,17.32
2022-12-31T12:09:17.830Z,17.39
2022-12-31T12:10:17.863Z,17.41
2022-12-31T12:11:17.779Z,17.39
2022-12-31T12:12:17.813Z,17.41
2022-12-31T12:13:17.774Z,17.41
2022-12-31T12:14:17.731Z,17.41
2022-12-31T12:15:17.731Z,17.38
2022-12-31T12:16:17.729Z,17.38
2022-12-31T12:17:17.747Z,17.38
2022-12-31T12:18:17.695Z,17.39
2022-12-31T12:19:17.717Z,17.41
2022-12-31T12:20:17.672Z,17.39
2022-12-31T12:21:17.679Z,17.39
2022-12-31T12:22:20.683Z,17.43
2022-12-31T12:23:17.659Z,17.43
2022-12-31T12:24:17.680Z,17.38
2022-12-31T12:25:17.660Z,17.37
2022-12-31T12:26:17.673Z,17.32
2022-12-31T12:27:17.624Z,17.30
2022-12-31T12:28:17.600Z,17.28
2022-12-31T12:29:17.579Z,17.25
2022-12-31T12:30:17.570Z,17.28
2022-12-31T12:31:17.562Z,17.28
2022-12-31T12:32:17.600Z,17.27
2022-12-31T12:33:17.595Z,17.27
2022-12-31T12:34:17.519Z,17.25
2022-12-31T12:35:17.519Z,17.25
2022-12-31T12:36:17.542Z,17.25
2022-12-31T12:37:17.492Z,17.24
2022-12-31T12:38:17.700Z,17.22
2022-12-31T12:39:17.461Z,17.20
2022-12-31T12:40:17.450Z,17.20
2022-12-31T12:41:17.440Z,17.24
2022-12-31T12:42:17.422Z,17.17
2022-12-31T12:43:17.450Z,17.13
2022-12-31T12:44:17.402Z,17.07
2022-12-31T12:45:17.398Z,17.04
2022-12-31T12:46:17.571Z,17.01
2022-12-31T12:47:17.408Z,16.95
2022-12-31T12:48:17.385Z,16.91
2022-12-31T12:49:17.366Z,16.82
2022-12-31T12:50:17.370Z,16.74
2022-12-31T12:51:17.705Z,16.69
2022-12-31T12:52:17.324Z,16.62